Pagrindinis puslapis
METAR-TAF:

METAR-TAF

Oro uostai :

Kvala Terenganu, Malaizija

platuma: 05-22-53N, ilguma: 103-06-17E, Aukštis: 6 m

Dabartinis oras

Ataskaita buvo paskelbta 1 valandą ir 7 minutes, ne 00:00 UTC
Vėjas 3 kt iš Pietų/Pietvakarių, svyruoja nuo Pietų/Pietryčių ir Vakarų/Pietvakarių
Temperatūra 26°C
Drėgmė 94%
Slėgis 1010 hPa
Matomumas 10 km arba daugiau
Mažai debesys ne aukštis 2000 ft

METAR: WMKN 010000Z 21003KT 150V250 9999 FEW020 26/25 Q1010

Laikas: 09:07 (01:07 UTC)

Prognozė

Ataskaita buvo paskelbta 2 valandos ir 7 minutes, ne 23:00 UTC
Prognozė galioja nuo 01 metu 00 UTC su 02 metu 00 UTC
Vėjas 3 kt nuo kintamojo kryptimis
Matomumas 10 km arba daugiau
Mažai debesys ne aukštis 1800 ft
Tapsmas
nuo 01 metu 04 UTC su 01 metu 06 UTC
Vėjas 6 kt iš Rytų/Šiaurės Rytų
Tapsmas
nuo 01 metu 10 UTC su 01 metu 12 UTC
Vėjas 3 kt nuo kintamojo kryptimis
Mažai debesys ne aukštis 2200 ft

TAF: WMKN 312300Z 0100/0200 VRB03KT 9999 FEW018 BECMG 0104/0106 06006KT BECMG 0110/0112 VRB03KT FEW022

Orai ataskaitas ir orų prognozės (METAR, TAF).

turimą stotys yra geltonos ir raudonos taškus žemėlapyje.

Perkelti pele per norėdami pamatyti stoties vardą.

Tada spustelėkite, norėdami matyti oro stebėjimo ir prognozės.

Norėdami pakeisti žemėlapį: spustelėkite ant žalios mygtukų su juodo kryžiaus žemyn,; žalią mygtuką su brūkšneliu, jei norite nutolinti; arba žalių rodyklių gretimoms žemėlapius.


METAR-TAF: